createdAt,value
2023-02-07T00:03:06.298Z,2.00
2023-02-07T00:08:28.056Z,2.30
2023-02-07T00:13:52.749Z,1.77
2023-02-07T00:19:15.456Z,2.23
2023-02-07T00:24:37.143Z,1.85
2023-02-07T00:29:58.859Z,2.40
2023-02-07T00:35:20.578Z,1.90
2023-02-07T00:40:42.353Z,1.52
2023-02-07T00:46:05.719Z,2.10
2023-02-07T00:51:27.702Z,1.67
2023-02-07T00:56:49.427Z,2.13
2023-02-07T01:02:11.241Z,2.13
2023-02-07T01:07:34.228Z,1.70
2023-02-07T01:12:56.056Z,1.73
2023-02-07T01:18:17.877Z,1.52
2023-02-07T01:23:39.852Z,1.80
2023-02-07T01:29:02.647Z,1.60
2023-02-07T01:34:24.337Z,1.75
2023-02-07T01:39:47.524Z,1.60
2023-02-07T01:45:40.466Z,2.08
2023-02-07T01:51:06.189Z,1.35
2023-02-07T02:01:55.433Z,1.43
2023-02-07T02:07:17.499Z,1.50
2023-02-07T02:12:55.775Z,1.88
2023-02-07T02:18:39.118Z,1.30
2023-02-07T02:24:19.314Z,1.40
2023-02-07T02:30:00.171Z,1.60
2023-02-07T02:35:40.672Z,1.40
2023-02-07T02:41:37.034Z,1.85
2023-02-07T02:47:03.439Z,1.70
2023-02-07T02:52:40.726Z,1.60
2023-02-07T02:58:27.778Z,1.63
2023-02-07T03:03:55.330Z,1.85
2023-02-07T03:09:38.341Z,1.20
2023-02-07T03:15:07.550Z,1.30
2023-02-07T03:20:35.218Z,1.70
2023-02-07T03:26:01.330Z,1.98
2023-02-07T03:31:25.871Z,1.40
2023-02-07T03:36:57.661Z,1.30
2023-02-07T03:42:31.369Z,1.58
2023-02-07T03:47:53.080Z,1.70
2023-02-07T03:53:14.798Z,1.75
2023-02-07T03:58:36.477Z,1.50
2023-02-07T04:03:58.204Z,1.63
2023-02-07T04:09:19.926Z,1.50
2023-02-07T04:14:41.597Z,1.60
2023-02-07T04:20:05.555Z,1.42
2023-02-07T04:25:27.384Z,1.40
2023-02-07T04:30:49.107Z,1.63
2023-02-07T04:36:11.002Z,1.75
2023-02-07T04:41:33.007Z,1.98
2023-02-07T04:46:54.761Z,1.75
2023-02-07T04:52:16.434Z,1.80
2023-02-07T04:57:38.107Z,2.15
2023-02-07T05:03:00.958Z,1.90
2023-02-07T05:08:25.298Z,1.90
2023-02-07T05:13:47.868Z,1.85
2023-02-07T05:19:09.675Z,1.80
2023-02-07T05:24:31.483Z,2.00
2023-02-07T05:29:53.259Z,2.08
2023-02-07T05:35:15.144Z,1.90
2023-02-07T05:40:38.315Z,2.05
2023-02-07T05:46:00.041Z,1.80
2023-02-07T05:51:21.816Z,1.98
2023-02-07T05:56:43.536Z,1.88
2023-02-07T06:02:05.475Z,1.30
2023-02-07T06:07:27.253Z,1.70
2023-02-07T06:12:48.986Z,1.63
2023-02-07T06:18:10.746Z,1.80
2023-02-07T06:23:32.438Z,1.70
2023-02-07T06:28:54.200Z,1.83
2023-02-07T06:34:15.994Z,1.50
2023-02-07T06:39:37.806Z,2.00
2023-02-07T06:44:59.644Z,1.60
2023-02-07T06:50:21.377Z,1.65
2023-02-07T06:55:43.310Z,2.35
2023-02-07T07:01:05.594Z,1.67
2023-02-07T07:06:27.352Z,2.42
2023-02-07T07:11:49.646Z,1.75
2023-02-07T07:17:11.318Z,2.42
2023-02-07T07:22:33.616Z,2.15
2023-02-07T07:27:55.401Z,2.28
2023-02-07T07:33:17.085Z,1.95
2023-02-07T07:38:38.973Z,2.08
2023-02-07T07:44:00.772Z,2.45
2023-02-07T07:49:22.514Z,2.00
2023-02-07T07:54:44.251Z,1.90
2023-02-07T08:00:06.591Z,1.95
2023-02-07T08:05:28.292Z,2.20
2023-02-07T08:10:50.347Z,2.22
2023-02-07T08:16:12.195Z,2.05
2023-02-07T08:21:33.960Z,1.58
2023-02-07T08:26:55.917Z,1.80
2023-02-07T08:32:17.657Z,1.70
2023-02-07T08:37:39.721Z,2.08
2023-02-07T08:43:01.425Z,1.90
2023-02-07T08:48:23.215Z,1.50
2023-02-07T08:53:44.933Z,1.75
2023-02-07T08:59:06.764Z,1.55
2023-02-07T09:04:28.620Z,1.30
2023-02-07T09:09:50.415Z,1.45
2023-02-07T09:15:12.215Z,1.40
2023-02-07T09:20:33.945Z,1.60
2023-02-07T09:26:01.415Z,1.50
2023-02-07T09:31:24.801Z,1.38
2023-02-07T09:36:46.600Z,1.48
2023-02-07T09:42:45.393Z,1.30
2023-02-07T09:48:16.906Z,1.95
2023-02-07T09:53:45.291Z,1.98
2023-02-07T09:59:16.879Z,1.88
2023-02-07T10:04:44.169Z,1.90
2023-02-07T10:10:18.201Z,1.70
2023-02-07T10:16:12.018Z,1.92
2023-02-07T10:21:52.105Z,1.75
2023-02-07T10:27:21.792Z,1.50
2023-02-07T10:32:47.047Z,1.52
2023-02-07T10:38:38.174Z,1.60
2023-02-07T10:43:59.924Z,1.50
2023-02-07T10:49:26.067Z,1.98
2023-02-07T10:54:54.560Z,1.80
2023-02-07T11:00:30.510Z,1.70
2023-02-07T11:05:56.942Z,1.63
2023-02-07T11:11:37.034Z,1.30
2023-02-07T11:17:01.536Z,1.48
2023-02-07T11:22:25.355Z,1.30
2023-02-07T11:27:47.191Z,1.30
2023-02-07T11:33:19.509Z,1.40
2023-02-07T11:38:50.533Z,1.00
2023-02-07T11:44:17.524Z,1.23
2023-02-07T11:49:39.249Z,1.30
2023-02-07T11:55:07.375Z,1.20
2023-02-07T12:00:30.599Z,1.05
2023-02-07T12:05:59.244Z,1.00
2023-02-07T12:11:34.261Z,0.90
2023-02-07T12:17:00.741Z,0.80
2023-02-07T12:22:29.335Z,0.98
2023-02-07T12:27:56.912Z,0.80
2023-02-07T12:33:42.370Z,0.85
2023-02-07T12:39:12.671Z,0.90
2023-02-07T12:44:52.315Z,1.15
2023-02-07T12:50:21.989Z,0.95
2023-02-07T12:56:28.484Z,0.70
2023-02-07T13:02:16.988Z,0.68
2023-02-07T13:07:57.526Z,0.63
2023-02-07T13:13:25.050Z,0.60
2023-02-07T13:19:02.776Z,0.63
2023-02-07T13:24:27.486Z,0.60
2023-02-07T13:29:51.704Z,0.50
2023-02-07T13:35:23.662Z,0.60
2023-02-07T13:41:04.058Z,0.57
2023-02-07T13:46:32.005Z,0.57
2023-02-07T13:52:11.801Z,0.60
2023-02-07T13:57:51.983Z,0.77
2023-02-07T14:03:22.845Z,0.68
2023-02-07T14:08:45.402Z,0.57
2023-02-07T14:14:14.520Z,0.70
2023-02-07T14:19:43.281Z,0.60
2023-02-07T14:25:07.698Z,0.88
2023-02-07T14:30:54.184Z,0.40
2023-02-07T14:36:18.871Z,0.85
2023-02-07T14:41:43.210Z,0.70
2023-02-07T14:47:08.569Z,1.00
2023-02-07T14:52:34.090Z,0.60
2023-02-07T14:58:03.889Z,1.08
2023-02-07T15:03:30.779Z,0.68
2023-02-07T15:09:20.701Z,0.60
2023-02-07T15:14:42.516Z,0.63
2023-02-07T15:20:04.705Z,0.95
2023-02-07T15:25:28.112Z,0.60
2023-02-07T15:31:04.976Z,0.70
2023-02-07T15:36:36.847Z,0.70
2023-02-07T15:41:58.836Z,0.65
2023-02-07T15:47:29.497Z,0.65
2023-02-07T15:52:54.563Z,0.50
2023-02-07T15:58:33.356Z,0.47
2023-02-07T16:03:57.738Z,0.80
2023-02-07T16:09:43.423Z,0.52
2023-02-07T16:15:22.544Z,0.50
2023-02-07T16:20:44.337Z,0.60
2023-02-07T16:26:06.126Z,0.52
2023-02-07T16:31:28.322Z,0.70
2023-02-07T16:36:53.701Z,0.70
2023-02-07T16:42:17.185Z,1.27
2023-02-07T16:47:38.866Z,1.02
2023-02-07T16:53:00.674Z,1.05
2023-02-07T16:58:27.320Z,0.60
2023-02-07T17:03:49.371Z,1.40
2023-02-07T17:09:23.199Z,1.80
2023-02-07T17:14:44.876Z,1.38
2023-02-07T17:20:20.445Z,1.08
2023-02-07T17:25:43.820Z,1.10
2023-02-07T17:31:05.613Z,1.10
2023-02-07T17:36:29.148Z,0.80
2023-02-07T17:41:50.908Z,1.00
2023-02-07T17:47:12.804Z,1.42
2023-02-07T17:52:35.151Z,1.20
2023-02-07T17:57:57.016Z,1.15
2023-02-07T18:03:20.479Z,1.70
2023-02-07T18:08:43.046Z,1.90
2023-02-07T18:14:04.985Z,1.92
2023-02-07T18:19:26.819Z,1.50
2023-02-07T18:24:48.520Z,1.10
2023-02-07T18:30:11.841Z,1.50
2023-02-07T18:35:34.051Z,1.45
2023-02-07T18:40:55.780Z,2.00
2023-02-07T18:46:20.243Z,1.98
2023-02-07T18:51:42.056Z,2.30
2023-02-07T18:57:03.853Z,1.83
2023-02-07T19:02:25.905Z,1.80
2023-02-07T19:07:47.693Z,2.72
2023-02-07T19:13:09.505Z,2.85
2023-02-07T19:18:31.424Z,2.70
2023-02-07T19:23:54.798Z,3.05
2023-02-07T19:29:20.490Z,3.20
2023-02-07T19:34:42.790Z,3.13
2023-02-07T19:40:04.801Z,2.83
2023-02-07T19:45:27.308Z,3.47
2023-02-07T19:51:00.625Z,3.90
2023-02-07T19:56:24.604Z,2.80
2023-02-07T20:01:46.578Z,3.28
2023-02-07T20:07:08.282Z,2.95
2023-02-07T20:12:29.996Z,3.17
2023-02-07T20:17:52.009Z,3.03
2023-02-07T20:23:14.127Z,2.90
2023-02-07T20:28:38.450Z,4.10
2023-02-07T20:34:02.254Z,2.58
2023-02-07T20:39:24.120Z,3.22
2023-02-07T20:44:45.908Z,2.83
2023-02-07T20:50:08.027Z,2.83
2023-02-07T20:55:30.000Z,2.33
2023-02-07T21:00:51.720Z,2.58
2023-02-07T21:06:13.655Z,2.70
2023-02-07T21:11:44.876Z,2.75
2023-02-07T21:17:06.715Z,3.40
2023-02-07T21:22:28.703Z,3.25
2023-02-07T21:27:50.401Z,3.13
2023-02-07T21:33:12.886Z,2.80
2023-02-07T21:38:35.397Z,3.55
2023-02-07T21:43:59.079Z,2.70
2023-02-07T21:49:21.086Z,2.58
2023-02-07T21:54:42.835Z,2.95
2023-02-07T22:00:08.204Z,2.80
2023-02-07T22:05:29.924Z,2.55
2023-02-07T22:10:51.666Z,2.83
2023-02-07T22:16:15.094Z,2.67
2023-02-07T22:21:37.943Z,2.83
2023-02-07T22:26:59.869Z,2.47
2023-02-07T22:32:21.594Z,2.38
2023-02-07T22:37:43.290Z,2.00
2023-02-07T22:43:12.428Z,2.20
2023-02-07T22:48:34.582Z,2.72
2023-02-07T22:53:59.111Z,2.45
2023-02-07T22:59:20.840Z,2.38
2023-02-07T23:04:42.547Z,1.90
2023-02-07T23:10:07.011Z,2.17
2023-02-07T23:15:29.012Z,2.35
2023-02-07T23:20:51.056Z,2.03
2023-02-07T23:26:15.790Z,1.80
2023-02-07T23:31:37.566Z,1.73
2023-02-07T23:36:59.271Z,1.90
2023-02-07T23:42:21.262Z,1.70
2023-02-07T23:47:43.162Z,1.60
2023-02-07T23:53:04.904Z,1.60
2023-02-07T23:58:27.572Z,1.80
